Time;durP1;ratioP1;P1;durP2;ratioP2;P2;SDS_P1;SDS_P2;PMS_P1;PMS_P2;Temp;Humidity;BMP_temperature;BMP_pressure;BME280_temperature;BME280_humidity;BME280_pressure;Samples;Min_cycle;Max_cycle;Signal;HPM_P1;HPM_P2
2023/09/25 00:00:27;;;;;;;2.95;1.77;;;11.90;99.90;;;;;;5003461;28;20229;-64
2023/09/25 00:02:54;;;;;;;1.73;1.60;;;11.90;99.90;;;;;;4999946;28;20590;-64
2023/09/25 00:05:23;;;;;;;3.42;2.15;;;11.80;99.90;;;;;;4997543;28;20396;-63
2023/09/25 00:07:49;;;;;;;1.90;1.70;;;11.80;99.90;;;;;;4996864;28;20218;-64
2023/09/25 00:10:16;;;;;;;3.45;1.90;;;11.70;99.90;;;;;;4988231;28;20210;-64
2023/09/25 00:12:44;;;;;;;4.25;1.90;;;11.70;99.90;;;;;;5017698;28;21393;-64
2023/09/25 00:15:11;;;;;;;1.98;1.80;;;11.60;99.90;;;;;;5006673;28;20228;-64
2023/09/25 00:17:39;;;;;;;3.00;1.70;;;11.60;99.90;;;;;;5013586;28;20238;-63
2023/09/25 00:20:10;;;;;;;2.78;1.85;;;11.60;99.90;;;;;;5019506;28;20204;-64
2023/09/25 00:22:39;;;;;;;2.47;1.67;;;11.70;99.90;;;;;;5002097;28;20265;-64
2023/09/25 00:25:07;;;;;;;5.07;1.85;;;11.80;99.90;;;;;;5013713;28;20198;-64
2023/09/25 00:27:34;;;;;;;3.00;1.73;;;11.60;99.90;;;;;;4979977;28;20331;-64
2023/09/25 00:30:03;;;;;;;2.03;1.80;;;11.60;99.90;;;;;;5017701;28;20193;-64
2023/09/25 00:32:30;;;;;;;2.78;1.83;;;11.60;99.90;;;;;;5010367;28;20324;-64
2023/09/25 00:34:56;;;;;;;2.25;1.92;;;11.60;99.90;;;;;;5013574;28;20209;-64
2023/09/25 00:37:23;;;;;;;4.28;2.28;;;11.60;99.90;;;;;;5004762;28;20252;-64
2023/09/25 00:39:52;;;;;;;1.83;1.73;;;12.00;99.90;;;;;;5019055;28;20200;-63
2023/09/25 00:42:19;;;;;;;2.83;2.15;;;11.70;99.90;;;;;;4983551;28;20252;-64
2023/09/25 00:44:46;;;;;;;2.35;2.03;;;11.70;99.90;;;;;;5017213;28;20975;-64
2023/09/25 00:47:12;;;;;;;5.00;2.17;;;11.80;99.90;;;;;;5009198;28;20226;-64
2023/09/25 00:49:39;;;;;;;2.38;1.95;;;11.80;99.90;;;;;;5011158;28;20244;-64
2023/09/25 00:52:07;;;;;;;4.47;1.92;;;11.80;99.90;;;;;;5001267;28;20209;-64
2023/09/25 00:54:34;;;;;;;2.53;1.95;;;11.80;99.90;;;;;;5018098;28;20212;-64
2023/09/25 00:57:03;;;;;;;2.92;2.03;;;11.70;99.90;;;;;;5017274;28;20198;-64
2023/09/25 00:59:30;;;;;;;6.55;2.08;;;11.80;99.90;;;;;;4983904;28;20213;-64
2023/09/25 01:01:57;;;;;;;5.20;2.25;;;11.80;99.90;;;;;;5009070;28;21387;-64
2023/09/25 01:04:25;;;;;;;3.63;1.77;;;12.00;99.90;;;;;;5009830;28;20560;-64
2023/09/25 01:06:52;;;;;;;3.78;2.00;;;11.80;99.90;;;;;;5013675;28;20229;-64
2023/09/25 01:09:19;;;;;;;2.40;1.90;;;11.30;99.90;;;;;;5007626;28;20197;-64
2023/09/25 01:11:46;;;;;;;4.63;2.00;;;11.90;99.90;;;;;;5017084;28;20691;-63
2023/09/25 01:14:14;;;;;;;2.17;1.83;;;12.00;99.90;;;;;;4986142;28;20210;-64
2023/09/25 01:16:41;;;;;;;3.33;2.08;;;12.00;99.90;;;;;;5016564;28;20438;-64
2023/09/25 01:19:09;;;;;;;2.13;1.92;;;11.90;99.90;;;;;;5013088;28;20202;-64
2023/09/25 01:21:36;;;;;;;2.53;1.77;;;12.00;99.90;;;;;;5010270;28;20252;-63
2023/09/25 01:24:05;;;;;;;4.95;1.90;;;11.80;99.90;;;;;;5004597;28;20578;-64
2023/09/25 01:26:32;;;;;;;1.95;1.83;;;11.80;99.90;;;;;;5018825;28;20228;-63
2023/09/25 01:28:59;;;;;;;3.05;2.17;;;11.70;99.90;;;;;;5023936;28;20671;-64
2023/09/25 01:31:26;;;;;;;2.08;1.73;;;11.60;99.90;;;;;;4984232;28;20220;-63
2023/09/25 01:33:52;;;;;;;3.08;1.77;;;11.60;99.90;;;;;;5012363;28;20209;-64
2023/09/25 01:36:19;;;;;;;4.70;2.00;;;11.70;99.90;;;;;;5018374;28;20199;-64
2023/09/25 01:38:47;;;;;;;2.13;1.70;;;11.60;99.90;;;;;;5004079;28;20230;-64
2023/09/25 01:41:15;;;;;;;2.25;1.80;;;11.60;99.90;;;;;;5024509;28;20293;-64
2023/09/25 01:43:43;;;;;;;2.30;1.90;;;11.60;99.90;;;;;;5012697;28;20315;-64
2023/09/25 01:46:10;;;;;;;2.40;2.00;;;11.50;99.90;;;;;;4983643;28;20362;-63
2023/09/25 01:48:37;;;;;;;2.70;1.98;;;10.70;99.90;;;;;;5015667;28;20201;-64
2023/09/25 01:51:09;;;;;;;2.60;1.70;;;11.60;99.90;;;;;;5013317;28;20436;-64
2023/09/25 01:53:36;;;;;;;3.55;2.30;;;11.70;99.90;;;;;;5005823;28;20216;-63
2023/09/25 01:56:10;;;;;;;2.10;1.85;;;12.00;99.90;;;;;;5010592;28;20312;-63
2023/09/25 01:58:39;;;;;;;2.20;1.75;;;11.70;99.90;;;;;;5019348;28;20193;-64
2023/09/25 02:01:06;;;;;;;2.75;1.70;;;11.70;99.90;;;;;;4977006;28;20248;-63
2023/09/25 02:03:33;;;;;;;2.90;2.03;;;11.80;99.90;;;;;;5025339;28;20864;-63
2023/09/25 02:06:00;;;;;;;3.33;1.85;;;11.80;99.90;;;;;;5012201;28;20223;-64
2023/09/25 02:08:26;;;;;;;2.00;1.77;;;12.20;99.90;;;;;;5008769;28;20791;-64
2023/09/25 02:10:53;;;;;;;2.15;1.75;;;11.80;99.90;;;;;;5007752;28;20205;-64
2023/09/25 02:13:20;;;;;;;3.72;1.88;;;11.80;99.90;;;;;;5023094;28;20198;-63
2023/09/25 02:15:49;;;;;;;2.03;1.83;;;11.80;99.90;;;;;;5023375;28;20201;-64
2023/09/25 02:18:16;;;;;;;2.42;1.88;;;;;;;;;;4992415;28;20590;-64
2023/09/25 02:20:43;;;;;;;3.97;1.98;;;11.70;99.90;;;;;;5010066;28;20220;-63
2023/09/25 02:23:10;;;;;;;2.90;1.95;;;11.60;99.90;;;;;;5021656;28;20210;-63
2023/09/25 02:25:36;;;;;;;2.08;1.77;;;11.30;99.90;;;;;;4994126;28;20949;-63
2023/09/25 02:28:04;;;;;;;2.53;1.77;;;11.60;99.90;;;;;;5026350;28;20225;-63
2023/09/25 02:30:30;;;;;;;2.00;1.80;;;11.40;99.90;;;;;;5012062;28;20212;-63
2023/09/25 02:32:59;;;;;;;6.55;2.00;;;11.50;99.90;;;;;;4987156;28;20205;-64
2023/09/25 02:35:26;;;;;;;2.25;1.90;;;;;;;;;;5013511;28;20766;-64
2023/09/25 02:37:54;;;;;;;2.33;1.63;;;11.50;99.90;;;;;;5007431;28;20201;-63
2023/09/25 02:40:21;;;;;;;2.47;2.13;;;;;;;;;;5005556;28;20201;-64
2023/09/25 02:42:48;;;;;;;3.08;1.90;;;11.50;99.90;;;;;;5007534;28;20204;-64
2023/09/25 02:45:15;;;;;;;2.30;1.77;;;11.50;99.90;;;;;;5019246;28;22467;-63
2023/09/25 02:47:41;;;;;;;7.82;1.92;;;9.90;99.90;;;;;;5014068;28;21208;-64
2023/09/25 02:50:11;;;;;;;4.05;2.40;;;11.30;99.90;;;;;;4987589;28;20228;-63
2023/09/25 02:52:38;;;;;;;2.80;2.50;;;11.30;99.90;;;;;;5009719;28;20224;-64
2023/09/25 02:55:05;;;;;;;3.72;2.60;;;11.40;99.90;;;;;;5019991;28;20209;-63
2023/09/25 02:57:32;;;;;;;5.30;2.28;;;11.30;99.90;;;;;;4991013;28;20205;-63
2023/09/25 02:59:59;;;;;;;2.58;2.22;;;11.20;99.90;;;;;;5020369;28;20988;-63
2023/09/25 03:02:26;;;;;;;4.35;2.40;;;11.30;99.90;;;;;;5012709;28;20303;-64
2023/09/25 03:04:54;;;;;;;3.22;2.58;;;11.40;99.90;;;;;;4990622;28;20217;-64
2023/09/25 03:07:22;;;;;;;4.35;2.53;;;11.30;99.90;;;;;;5010222;28;20249;-64
2023/09/25 03:09:49;;;;;;;3.65;2.35;;;11.30;99.90;;;;;;5024396;28;20714;-64
2023/09/25 03:12:15;;;;;;;3.72;2.20;;;11.30;99.90;;;;;;5001352;28;20629;-64
2023/09/25 03:14:42;;;;;;;3.08;2.28;;;11.40;99.90;;;;;;5011183;28;20221;-64
2023/09/25 03:17:09;;;;;;;3.58;2.10;;;11.40;99.90;;;;;;5022397;28;20201;-63
2023/09/25 03:19:38;;;;;;;2.67;2.00;;;11.50;99.90;;;;;;4986897;28;20210;-64
2023/09/25 03:22:04;;;;;;;2.15;1.98;;;11.40;99.90;;;;;;5019850;28;20604;-63
2023/09/25 03:24:33;;;;;;;2.03;1.83;;;13.00;99.90;;;;;;5019392;28;20217;-64
2023/09/25 03:26:59;;;;;;;2.35;1.70;;;11.50;99.90;;;;;;5010266;28;20225;-63
2023/09/25 03:29:26;;;;;;;2.47;1.90;;;12.00;99.90;;;;;;4998266;28;20217;-64
2023/09/25 03:31:53;;;;;;;2.15;1.95;;;11.60;99.90;;;;;;5009349;28;20202;-64
2023/09/25 03:34:20;;;;;;;2.83;1.88;;;11.50;99.90;;;;;;5003711;28;20665;-64
2023/09/25 03:36:47;;;;;;;2.17;1.98;;;11.70;99.90;;;;;;4984082;28;20225;-63
2023/09/25 03:39:14;;;;;;;2.67;2.03;;;11.60;99.90;;;;;;5015065;28;20667;-64
2023/09/25 03:41:42;;;;;;;5.65;2.35;;;11.70;99.90;;;;;;5010279;28;20225;-64
2023/09/25 03:44:09;;;;;;;5.97;1.95;;;11.70;99.90;;;;;;4992971;28;20208;-63
2023/09/25 03:46:36;;;;;;;7.50;2.15;;;11.70;99.90;;;;;;4998010;28;20236;-64
2023/09/25 03:49:05;;;;;;;5.63;2.15;;;11.70;99.90;;;;;;5004302;28;20232;-64
2023/09/25 03:51:32;;;;;;;2.55;1.60;;;12.00;99.90;;;;;;4970949;28;20225;-64
2023/09/25 03:53:59;;;;;;;2.72;1.65;;;11.70;99.90;;;;;;4993337;28;20234;-63
2023/09/25 03:56:26;;;;;;;3.45;1.83;;;11.60;99.90;;;;;;5004373;28;20205;-64
2023/09/25 03:58:55;;;;;;;2.65;1.90;;;11.70;99.90;;;;;;4988297;28;20201;-64
2023/09/25 04:01:22;;;;;;;1.98;1.73;;;11.70;99.90;;;;;;5007429;28;20250;-64
2023/09/25 04:03:49;;;;;;;2.00;1.60;;;11.70;99.90;;;;;;4986267;28;20624;-63
2023/09/25 04:06:18;;;;;;;2.45;1.90;;;11.60;99.90;;;;;;5019779;28;20229;-64
2023/09/25 04:08:45;;;;;;;3.15;1.88;;;11.70;99.90;;;;;;4968937;28;20352;-63
2023/09/25 04:11:11;;;;;;;3.50;2.08;;;11.70;99.90;;;;;;5014625;28;20774;-63
2023/09/25 04:13:39;;;;;;;2.97;2.13;;;11.60;99.90;;;;;;5013724;28;20295;-64
2023/09/25 04:16:12;;;;;;;2.42;2.03;;;11.80;99.90;;;;;;5001324;28;20317;-64
2023/09/25 04:18:39;;;;;;;3.10;1.73;;;11.80;99.90;;;;;;5008860;28;20221;-64
2023/09/25 04:21:11;;;;;;;4.18;2.10;;;11.90;99.90;;;;;;5011348;28;20610;-64
2023/09/25 04:23:38;;;;;;;2.35;1.92;;;11.80;99.90;;;;;;4974887;28;20209;-63
2023/09/25 04:26:06;;;;;;;1.63;1.52;;;;;;;;;;4996742;28;20267;-64
2023/09/25 04:28:34;;;;;;;2.78;1.80;;;11.80;99.90;;;;;;5008610;28;20417;-63
2023/09/25 04:31:04;;;;;;;1.95;1.50;;;11.50;99.90;;;;;;4985812;28;20226;-64
2023/09/25 04:33:33;;;;;;;4.65;2.10;;;11.80;99.90;;;;;;4991586;28;20212;-64
2023/09/25 04:36:01;;;;;;;2.22;1.95;;;11.70;99.90;;;;;;4997102;28;20220;-63
2023/09/25 04:38:28;;;;;;;6.60;2.00;;;11.80;99.90;;;;;;4968783;28;20996;-63
2023/09/25 04:40:54;;;;;;;1.80;1.65;;;11.80;99.90;;;;;;5003098;28;20336;-63
2023/09/25 04:43:21;;;;;;;5.70;1.70;;;11.90;99.90;;;;;;5007092;28;20208;-64
2023/09/25 04:45:51;;;;;;;4.05;2.08;;;11.80;99.90;;;;;;5005324;28;20212;-64
2023/09/25 04:48:18;;;;;;;1.88;1.77;;;11.90;99.90;;;;;;4989170;28;20233;-63
2023/09/25 04:50:46;;;;;;;1.65;1.55;;;11.90;99.90;;;;;;5005978;28;20198;-64
2023/09/25 04:53:14;;;;;;;2.75;1.85;;;11.90;99.90;;;;;;5000579;28;20228;-64
2023/09/25 04:55:41;;;;;;;4.45;2.10;;;11.90;99.90;;;;;;4969355;28;20334;-63
2023/09/25 04:58:08;;;;;;;1.90;1.75;;;11.50;99.90;;;;;;4995847;28;20229;-63
2023/09/25 05:00:36;;;;;;;2.17;1.70;;;12.50;99.90;;;;;;5008098;28;20286;-64
2023/09/25 05:03:02;;;;;;;3.45;1.80;;;11.80;99.90;;;;;;4983839;28;20235;-64
2023/09/25 05:05:30;;;;;;;2.28;1.70;;;11.90;99.90;;;;;;5005349;28;20206;-63
2023/09/25 05:07:58;;;;;;;1.77;1.63;;;12.00;99.90;;;;;;5008298;28;20598;-64
2023/09/25 05:10:26;;;;;;;5.13;1.95;;;12.00;99.90;;;;;;4979040;28;20229;-63
2023/09/25 05:12:54;;;;;;;1.83;1.70;;;12.00;99.90;;;;;;5015225;28;20198;-63
2023/09/25 05:15:21;;;;;;;2.10;1.70;;;12.00;99.90;;;;;;5022265;28;20255;-64
2023/09/25 05:17:49;;;;;;;1.90;1.77;;;11.90;99.90;;;;;;4998165;28;20227;-64
2023/09/25 05:20:18;;;;;;;2.13;1.92;;;12.00;99.90;;;;;;4995114;28;21372;-64
2023/09/25 05:22:46;;;;;;;2.75;1.73;;;12.00;99.90;;;;;;5013214;28;20709;-64
2023/09/25 05:25:15;;;;;;;2.78;1.77;;;11.70;99.90;;;;;;4985184;28;20214;-64
2023/09/25 05:27:44;;;;;;;2.92;2.20;;;11.90;99.90;;;;;;5020033;28;20690;-64
2023/09/25 05:30:12;;;;;;;6.30;1.80;;;12.00;99.90;;;;;;5015322;28;20198;-64
2023/09/25 05:32:39;;;;;;;1.80;1.70;;;11.90;99.90;;;;;;5004935;28;20216;-64
2023/09/25 05:35:07;;;;;;;3.97;1.73;;;12.00;99.90;;;;;;5004005;28;20201;-64
2023/09/25 05:37:34;;;;;;;10.45;1.90;;;12.00;99.90;;;;;;5010687;28;20215;-64
2023/09/25 05:40:01;;;;;;;4.55;1.90;;;12.00;99.90;;;;;;5024487;28;20193;-64
2023/09/25 05:42:29;;;;;;;2.30;1.92;;;11.90;99.90;;;;;;4982788;28;20619;-64
2023/09/25 05:44:56;;;;;;;5.15;2.00;;;12.10;99.90;;;;;;5010933;28;20233;-64
2023/09/25 05:47:23;;;;;;;2.03;1.73;;;12.10;99.90;;;;;;5005816;28;20340;-63
2023/09/25 05:49:50;;;;;;;5.28;1.70;;;12.10;99.90;;;;;;5013905;28;20206;-64
2023/09/25 05:52:17;;;;;;;2.45;1.92;;;12.20;99.90;;;;;;5007265;28;20198;-63
2023/09/25 05:54:45;;;;;;;3.80;2.10;;;12.10;99.90;;;;;;5018893;28;20205;-63
2023/09/25 05:57:12;;;;;;;2.25;1.63;;;12.20;99.90;;;;;;4982451;28;21315;-64
2023/09/25 05:59:40;;;;;;;2.33;2.10;;;12.20;99.90;;;;;;5021834;28;20194;-64
2023/09/25 06:02:07;;;;;;;3.10;1.65;;;11.60;99.90;;;;;;5007430;28;20197;-64
2023/09/25 06:04:36;;;;;;;2.50;1.92;;;12.30;99.90;;;;;;5005668;28;20201;-63
2023/09/25 06:07:03;;;;;;;2.45;1.88;;;12.10;99.90;;;;;;4994690;28;20725;-64
2023/09/25 06:09:30;;;;;;;3.50;2.05;;;12.30;99.90;;;;;;5013340;28;20335;-64
2023/09/25 06:11:58;;;;;;;4.63;2.03;;;12.30;99.90;;;;;;4998081;28;20205;-64
2023/09/25 06:14:25;;;;;;;6.07;2.20;;;12.40;99.90;;;;;;5003380;28;20206;-64
2023/09/25 06:16:54;;;;;;;4.05;1.80;;;12.40;99.90;;;;;;5015841;28;20293;-64
2023/09/25 06:19:22;;;;;;;3.75;2.05;;;12.40;99.90;;;;;;5013705;28;20379;-64
2023/09/25 06:21:49;;;;;;;2.72;1.77;;;12.40;99.90;;;;;;5008125;28;20222;-64
2023/09/25 06:24:16;;;;;;;2.40;1.73;;;12.50;99.90;;;;;;4999829;28;20489;-64
2023/09/25 06:26:46;;;;;;;2.80;2.13;;;12.70;99.90;;;;;;5002456;28;20224;-63
2023/09/25 06:29:13;;;;;;;4.47;1.80;;;12.60;99.90;;;;;;4983677;28;20229;-63
2023/09/25 06:31:40;;;;;;;2.17;1.98;;;12.70;99.90;;;;;;5009527;28;20213;-64
2023/09/25 06:34:09;;;;;;;3.90;1.75;;;12.60;99.90;;;;;;5001209;28;20228;-63
2023/09/25 06:36:36;;;;;;;1.95;1.80;;;12.70;99.90;;;;;;5000190;28;20232;-64
2023/09/25 06:39:09;;;;;;;2.40;1.70;;;12.80;99.90;;;;;;5001513;28;20695;-63
2023/09/25 06:41:36;;;;;;;1.88;1.35;;;12.20;99.90;;;;;;5003672;28;20352;-64
2023/09/25 06:44:04;;;;;;;2.00;1.70;;;12.90;99.90;;;;;;4984661;28;21165;-63
2023/09/25 06:46:31;;;;;;;1.80;1.70;;;13.00;99.90;;;;;;5004407;28;20230;-64
2023/09/25 06:48:57;;;;;;;6.18;2.00;;;13.00;99.90;;;;;;4998467;28;20234;-63
2023/09/25 06:51:26;;;;;;;3.28;1.95;;;13.00;99.90;;;;;;5004798;28;20224;-64
2023/09/25 06:53:53;;;;;;;2.10;1.90;;;12.90;99.90;;;;;;5012807;28;20209;-64
2023/09/25 06:56:20;;;;;;;2.92;1.83;;;13.10;99.90;;;;;;5009442;28;22013;-64
2023/09/25 06:58:47;;;;;;;1.67;1.52;;;13.10;99.90;;;;;;4978376;28;20590;-64
2023/09/25 07:01:14;;;;;;;3.70;1.85;;;13.20;99.90;;;;;;5011460;28;20278;-64
2023/09/25 07:03:40;;;;;;;2.08;1.67;;;13.20;99.90;;;;;;5003308;28;20859;-64
2023/09/25 07:06:07;;;;;;;4.63;1.70;;;13.60;99.90;;;;;;5007170;28;21122;-64
2023/09/25 07:08:38;;;;;;;2.08;1.70;;;13.30;99.90;;;;;;5014933;28;20724;-65
2023/09/25 07:11:04;;;;;;;1.95;1.55;;;13.40;99.90;;;;;;5011476;28;20271;-64
2023/09/25 07:13:33;;;;;;;2.60;1.48;;;13.40;99.90;;;;;;5008210;28;20232;-64
2023/09/25 07:16:08;;;;;;;3.20;1.70;;;13.50;99.90;;;;;;4991592;28;20201;-64
2023/09/25 07:18:35;;;;;;;2.92;1.42;;;13.50;99.90;;;;;;5012132;28;20201;-64
2023/09/25 07:21:03;;;;;;;1.60;1.50;;;13.50;99.90;;;;;;5007284;28;20609;-64
2023/09/25 07:23:31;;;;;;;2.55;1.85;;;14.60;99.90;;;;;;5012491;28;20241;-64
2023/09/25 07:26:03;;;;;;;3.92;1.75;;;13.60;99.90;;;;;;5008072;28;20197;-64
2023/09/25 07:28:31;;;;;;;3.28;1.83;;;13.60;99.90;;;;;;5022635;28;20326;-65
2023/09/25 07:31:00;;;;;;;2.38;1.77;;;13.70;99.90;;;;;;4987467;28;20222;-64
2023/09/25 07:33:27;;;;;;;2.30;1.63;;;13.70;99.90;;;;;;5015706;28;20208;-64
2023/09/25 07:35:54;;;;;;;2.10;1.90;;;13.70;99.90;;;;;;5003599;28;20209;-64
2023/09/25 07:38:22;;;;;;;2.45;1.65;;;13.70;99.90;;;;;;5011524;28;20201;-65
2023/09/25 07:40:49;;;;;;;2.47;1.88;;;13.80;99.90;;;;;;5006053;28;20312;-64
2023/09/25 07:43:19;;;;;;;3.35;1.70;;;13.80;99.90;;;;;;5013985;28;20217;-64
2023/09/25 07:45:48;;;;;;;3.35;1.58;;;13.90;99.90;;;;;;4975917;28;20229;-64
2023/09/25 07:48:16;;;;;;;4.65;1.80;;;13.90;99.90;;;;;;5004539;28;20232;-64
2023/09/25 07:50:44;;;;;;;2.70;1.90;;;13.90;99.90;;;;;;5002731;28;20221;-64
2023/09/25 07:53:10;;;;;;;1.65;1.55;;;13.90;99.90;;;;;;5001891;28;21521;-64
2023/09/25 07:55:38;;;;;;;1.95;1.63;;;14.00;99.90;;;;;;4994809;28;20198;-64
2023/09/25 07:58:05;;;;;;;2.47;1.60;;;14.00;99.90;;;;;;5016917;28;20698;-64
2023/09/25 08:00:39;;;;;;;3.65;1.63;;;14.90;99.90;;;;;;4976230;28;20224;-64
2023/09/25 08:03:06;;;;;;;1.95;1.75;;;13.70;99.90;;;;;;5012858;28;20251;-64
2023/09/25 08:05:34;;;;;;;2.75;1.85;;;14.20;99.90;;;;;;5002798;28;20225;-63
2023/09/25 08:08:01;;;;;;;1.95;1.67;;;14.20;99.90;;;;;;4998350;28;20229;-64
2023/09/25 08:10:27;;;;;;;1.65;1.55;;;14.20;99.90;;;;;;5011502;28;20223;-63
2023/09/25 08:12:54;;;;;;;2.55;1.80;;;14.30;99.90;;;;;;5003187;28;20194;-64
2023/09/25 08:15:22;;;;;;;2.72;1.42;;;14.30;99.90;;;;;;5022461;28;20198;-63
2023/09/25 08:17:51;;;;;;;3.25;1.60;;;14.40;99.90;;;;;;4980541;28;20226;-64
2023/09/25 08:20:20;;;;;;;2.38;1.30;;;14.50;99.90;;;;;;4985301;28;20237;-64
2023/09/25 08:22:48;;;;;;;1.92;1.73;;;14.40;99.90;;;;;;5016447;28;20229;-64
2023/09/25 08:25:15;;;;;;;1.80;1.70;;;14.40;99.90;;;;;;4989732;28;20221;-64
2023/09/25 08:27:43;;;;;;;2.38;1.77;;;14.50;99.90;;;;;;4998394;28;20730;-64
2023/09/25 08:30:11;;;;;;;2.30;1.50;;;14.40;99.90;;;;;;5012915;28;20225;-64
2023/09/25 08:32:37;;;;;;;1.63;1.52;;;14.50;99.90;;;;;;4978498;28;20201;-64
2023/09/25 08:35:09;;;;;;;1.52;1.42;;;14.60;99.90;;;;;;5015695;28;20217;-64
2023/09/25 08:37:37;;;;;;;2.03;1.60;;;14.60;99.90;;;;;;4974901;28;20202;-64
2023/09/25 08:40:04;;;;;;;3.22;1.50;;;14.70;99.90;;;;;;4983712;28;20317;-64
2023/09/25 08:42:31;;;;;;;2.40;1.40;;;14.70;99.90;;;;;;4988041;28;20231;-63
2023/09/25 08:45:04;;;;;;;1.83;1.45;;;15.40;99.90;;;;;;5010054;28;20217;-63
2023/09/25 08:47:32;;;;;;;2.63;1.40;;;14.70;99.90;;;;;;4976879;28;20582;-63
2023/09/25 08:50:00;;;;;;;3.47;1.67;;;14.80;99.90;;;;;;5009863;28;20255;-64
2023/09/25 08:52:28;;;;;;;1.90;1.50;;;14.80;99.90;;;;;;4989126;28;20226;-63
2023/09/25 08:54:55;;;;;;;2.03;1.67;;;14.90;99.90;;;;;;4987219;28;20775;-64
2023/09/25 08:57:22;;;;;;;3.72;1.75;;;13.40;99.90;;;;;;4998701;28;20699;-64
2023/09/25 08:59:50;;;;;;;1.50;1.40;;;14.90;99.90;;;;;;4975169;28;20286;-64
2023/09/25 09:02:18;;;;;;;2.72;1.77;;;15.00;99.90;;;;;;4999949;28;20289;-64
2023/09/25 09:04:45;;;;;;;2.22;1.50;;;15.00;99.90;;;;;;4979346;28;20221;-64
2023/09/25 09:07:14;;;;;;;3.85;1.55;;;15.00;99.90;;;;;;4998046;28;20581;-64
2023/09/25 09:09:43;;;;;;;2.00;1.40;;;15.10;99.90;;;;;;4982544;28;20595;-64
2023/09/25 09:12:11;;;;;;;1.88;1.60;;;15.10;99.90;;;;;;5005386;28;20217;-64
2023/09/25 09:14:39;;;;;;;1.58;1.48;;;15.20;99.90;;;;;;4993939;28;20237;-64
2023/09/25 09:17:07;;;;;;;1.58;1.42;;;15.20;99.90;;;;;;5004111;28;20499;-64
2023/09/25 09:19:50;;;;;;;5.97;1.80;;;15.20;99.90;;;;;;4976290;28;20679;-64
2023/09/25 09:22:18;;;;;;;2.58;1.35;;;15.30;99.90;;;;;;4991961;28;20229;-64
2023/09/25 09:24:47;;;;;;;2.67;1.40;;;15.40;99.90;;;;;;4990282;28;20387;-63
2023/09/25 09:27:17;;;;;;;1.30;1.20;;;14.40;99.90;;;;;;4992662;28;20330;-64
2023/09/25 09:29:45;;;;;;;1.40;1.17;;;15.50;99.90;;;;;;4986195;28;20896;-64
2023/09/25 09:32:14;;;;;;;2.10;1.50;;;15.60;99.90;;;;;;5009175;28;20221;-64
2023/09/25 09:34:42;;;;;;;1.65;1.30;;;15.50;99.90;;;;;;4972441;28;21827;-64
2023/09/25 09:37:09;;;;;;;1.83;1.50;;;15.70;99.90;;;;;;5012303;28;20274;-64
2023/09/25 09:39:37;;;;;;;1.75;1.23;;;15.70;99.90;;;;;;4987764;28;20225;-64
2023/09/25 09:42:08;;;;;;;4.53;1.50;;;15.70;99.90;;;;;;5000425;28;21032;-64
2023/09/25 09:44:36;;;;;;;2.35;1.73;;;15.70;99.90;;;;;;4994027;28;20206;-65
2023/09/25 09:47:05;;;;;;;1.60;1.45;;;15.90;99.90;;;;;;5012716;28;20197;-64
2023/09/25 09:49:35;;;;;;;2.83;1.10;;;16.00;99.90;;;;;;4970119;28;20900;-64
2023/09/25 09:52:04;;;;;;;1.33;1.05;;;16.00;99.90;;;;;;5010535;28;20208;-64
2023/09/25 09:54:33;;;;;;;1.48;1.38;;;16.00;99.90;;;;;;4993194;28;20237;-64
2023/09/25 09:57:00;;;;;;;1.13;1.02;;;16.00;99.90;;;;;;5004038;28;20935;-65
2023/09/25 09:59:28;;;;;;;2.75;1.30;;;16.10;99.90;;;;;;4997369;28;20206;-64
2023/09/25 10:01:56;;;;;;;1.40;1.30;;;16.00;99.90;;;;;;5017835;28;20205;-64
2023/09/25 10:04:24;;;;;;;5.50;1.50;;;16.10;99.90;;;;;;5006181;28;20202;-64
2023/09/25 10:06:52;;;;;;;4.35;1.52;;;16.10;99.90;;;;;;4970068;28;20209;-64
2023/09/25 10:09:20;;;;;;;1.75;1.40;;;16.10;99.90;;;;;;4997908;28;20484;-64
2023/09/25 10:11:48;;;;;;;1.95;1.33;;;16.20;99.90;;;;;;4997034;28;20415;-64
2023/09/25 10:14:20;;;;;;;1.20;1.10;;;16.20;99.90;;;;;;5008762;28;20231;-63
2023/09/25 10:17:09;;;;;;;2.00;1.45;;;16.30;99.90;;;;;;4993521;28;20921;-64
2023/09/25 10:19:52;;;;;;;1.40;1.30;;;16.40;99.90;;;;;;4998159;28;20204;-64
2023/09/25 10:22:21;;;;;;;3.53;1.48;;;16.40;99.90;;;;;;4963769;28;20233;-64
2023/09/25 10:24:49;;;;;;;2.88;1.40;;;16.50;99.90;;;;;;5012756;28;20722;-65
2023/09/25 10:27:17;;;;;;;3.17;1.42;;;16.50;99.90;;;;;;5001325;28;20197;-64
2023/09/25 10:30:06;;;;;;;2.95;1.38;;;16.00;99.90;;;;;;5011767;28;20255;-64
2023/09/25 10:32:38;;;;;;;1.35;1.20;;;16.60;99.90;;;;;;4995284;28;20201;-64
2023/09/25 10:35:36;;;;;;;4.45;1.52;;;16.60;99.90;;;;;;5007839;28;20201;-64
2023/09/25 10:38:19;;;;;;;1.55;1.30;;;16.80;99.90;;;;;;4981776;28;20205;-64
2023/09/25 10:40:49;;;;;;;1.70;1.30;;;16.80;99.90;;;;;;5001196;28;20917;-64
2023/09/25 10:43:17;;;;;;;1.42;1.33;;;17.00;99.90;;;;;;5009242;28;20212;-64
2023/09/25 10:45:44;;;;;;;2.50;1.50;;;16.90;99.90;;;;;;5018827;28;20197;-64
2023/09/25 10:48:12;;;;;;;1.20;1.10;;;17.00;99.90;;;;;;5005430;28;20459;-64
2023/09/25 10:50:40;;;;;;;1.45;1.00;;;17.10;99.90;;;;;;5009855;28;20750;-64
2023/09/25 10:53:07;;;;;;;5.40;1.50;;;17.30;99.90;;;;;;4984839;28;20258;-64
2023/09/25 10:55:35;;;;;;;2.90;1.63;;;17.30;99.90;;;;;;5017278;28;20212;-64
2023/09/25 10:58:03;;;;;;;4.22;1.40;;;17.40;99.90;;;;;;5001908;28;20204;-64
2023/09/25 11:00:32;;;;;;;2.03;1.27;;;17.40;99.90;;;;;;5003755;28;20210;-63
2023/09/25 11:02:59;;;;;;;1.50;1.20;;;17.40;99.90;;;;;;4993183;28;20387;-65
2023/09/25 11:05:29;;;;;;;1.70;1.60;;;17.30;99.90;;;;;;5019525;28;20313;-64
2023/09/25 11:07:56;;;;;;;1.85;1.30;;;17.30;99.90;;;;;;4978032;28;20925;-64
2023/09/25 11:10:28;;;;;;;1.40;1.20;;;17.30;99.90;;;;;;5017848;28;20229;-64
2023/09/25 11:12:54;;;;;;;1.80;1.48;;;18.30;99.90;;;;;;4995887;28;20204;-64
2023/09/25 11:15:21;;;;;;;1.30;1.20;;;17.20;99.90;;;;;;5002472;28;20202;-64
2023/09/25 11:17:48;;;;;;;1.23;1.13;;;15.20;99.90;;;;;;5001203;28;20201;-64
2023/09/25 11:20:19;;;;;;;1.55;1.20;;;17.30;99.90;;;;;;5010872;28;20209;-64
2023/09/25 11:22:48;;;;;;;1.50;1.40;;;17.30;99.90;;;;;;4993912;28;20824;-65
2023/09/25 11:25:16;;;;;;;4.00;1.35;;;17.30;99.90;;;;;;5008526;28;20233;-64
2023/09/25 11:27:53;;;;;;;1.52;1.42;;;17.30;99.90;;;;;;5016605;28;20213;-64
2023/09/25 11:30:21;;;;;;;2.05;1.33;;;17.30;99.90;;;;;;5007008;28;20237;-64
2023/09/25 11:32:50;;;;;;;4.13;1.50;;;17.40;99.90;;;;;;5003850;28;20194;-64
2023/09/25 11:35:22;;;;;;;5.13;1.27;;;17.20;99.90;;;;;;5005654;28;20217;-64
2023/09/25 11:37:59;;;;;;;1.60;1.30;;;17.40;99.90;;;;;;5015479;28;20206;-64
2023/09/25 11:40:26;;;;;;;1.80;1.42;;;17.40;99.90;;;;;;4982653;28;20209;-64
2023/09/25 11:42:53;;;;;;;1.50;1.25;;;17.50;99.90;;;;;;5017374;28;20702;-64
2023/09/25 11:45:20;;;;;;;2.75;1.48;;;17.40;99.90;;;;;;4988741;28;22193;-64
2023/09/25 11:47:47;;;;;;;1.40;1.30;;;17.40;99.90;;;;;;5009797;28;20217;-64
2023/09/25 11:50:16;;;;;;;2.22;1.27;;;17.40;99.90;;;;;;4998738;28;20435;-64
2023/09/25 11:52:43;;;;;;;2.50;1.10;;;17.50;99.90;;;;;;5012701;28;20202;-64
2023/09/25 11:55:11;;;;;;;3.00;1.42;;;17.50;99.90;;;;;;4974989;28;20750;-64
2023/09/25 11:57:41;;;;;;;4.47;1.50;;;17.60;99.90;;;;;;5010601;28;20225;-64
2023/09/25 12:00:08;;;;;;;2.67;1.40;;;17.60;99.90;;;;;;4989464;28;20713;-64
2023/09/25 12:02:36;;;;;;;1.88;1.50;;;17.60;99.90;;;;;;4998924;28;20201;-64
2023/09/25 12:05:03;;;;;;;2.28;1.52;;;17.50;99.90;;;;;;4999291;28;20236;-65
2023/09/25 12:07:30;;;;;;;3.20;1.25;;;17.60;99.90;;;;;;5016680;28;20267;-64
2023/09/25 12:09:57;;;;;;;3.47;1.63;;;17.50;99.90;;;;;;5009162;28;20243;-64
2023/09/25 12:12:26;;;;;;;5.15;1.40;;;17.60;99.90;;;;;;4979738;28;20206;-64
2023/09/25 12:14:55;;;;;;;1.20;1.10;;;17.60;99.90;;;;;;4999188;28;20193;-64
2023/09/25 12:17:22;;;;;;;1.30;1.20;;;17.60;99.90;;;;;;5004598;28;21667;-64
2023/09/25 12:19:50;;;;;;;1.45;1.10;;;17.60;99.90;;;;;;5000811;28;20225;-64
2023/09/25 12:22:16;;;;;;;2.30;1.55;;;17.60;99.90;;;;;;5013516;28;20414;-65
2023/09/25 12:24:44;;;;;;;1.95;1.20;;;17.70;99.90;;;;;;5007414;28;20205;-64
2023/09/25 12:27:11;;;;;;;2.30;1.58;;;17.70;99.90;;;;;;4943280;28;20701;-64
2023/09/25 12:29:40;;;;;;;1.58;1.20;;;17.70;99.90;;;;;;4996096;28;20229;-64
2023/09/25 12:32:07;;;;;;;1.42;1.33;;;17.80;99.90;;;;;;4984157;28;20198;-64
2023/09/25 12:34:33;;;;;;;2.28;1.20;;;17.80;99.90;;;;;;5005300;28;20206;-64
2023/09/25 12:37:00;;;;;;;3.30;1.08;;;17.80;99.90;;;;;;5021189;28;20221;-64
2023/09/25 12:39:27;;;;;;;1.40;1.23;;;17.80;99.90;;;;;;5012185;28;20197;-64
2023/09/25 12:41:54;;;;;;;5.30;1.30;;;;;;;;;;5007770;28;20209;-64
2023/09/25 12:44:21;;;;;;;1.70;1.50;;;17.90;99.90;;;;;;4984653;28;20201;-64
2023/09/25 12:46:49;;;;;;;3.13;1.60;;;17.90;99.90;;;;;;4992657;28;20217;-64
2023/09/25 12:49:18;;;;;;;2.28;1.55;;;17.90;99.90;;;;;;5001335;28;20206;-64
2023/09/25 12:51:45;;;;;;;2.90;1.23;;;18.00;99.90;;;;;;5000847;28;20240;-64